sensor_id;sensor_type;location;lat;lon;timestamp;P1;durP1;ratioP1;P2;durP2;ratioP2
9214;SDS011;4642;51.364;6.788;2023-03-23T00:01:23;3.93;;;2.13;;
9214;SDS011;4642;51.364;6.788;2023-03-23T00:03:52;4.77;;;1.77;;
9214;SDS011;4642;51.364;6.788;2023-03-23T00:06:22;2.77;;;1.70;;
9214;SDS011;4642;51.364;6.788;2023-03-23T00:08:49;2.03;;;1.40;;
9214;SDS011;4642;51.364;6.788;2023-03-23T00:11:22;2.57;;;1.43;;
9214;SDS011;4642;51.364;6.788;2023-03-23T00:13:51;2.33;;;1.77;;
9214;SDS011;4642;51.364;6.788;2023-03-23T00:16:17;6.03;;;1.73;;
9214;SDS011;4642;51.364;6.788;2023-03-23T00:18:55;4.50;;;1.70;;
9214;SDS011;4642;51.364;6.788;2023-03-23T00:21:23;2.53;;;1.73;;
9214;SDS011;4642;51.364;6.788;2023-03-23T00:23:50;2.07;;;1.73;;
9214;SDS011;4642;51.364;6.788;2023-03-23T00:26:16;3.97;;;1.90;;
9214;SDS011;4642;51.364;6.788;2023-03-23T00:28:42;2.50;;;1.63;;
9214;SDS011;4642;51.364;6.788;2023-03-23T00:31:08;2.80;;;2.10;;
9214;SDS011;4642;51.364;6.788;2023-03-23T00:33:35;2.00;;;1.67;;
9214;SDS011;4642;51.364;6.788;2023-03-23T00:36:03;2.03;;;1.63;;
9214;SDS011;4642;51.364;6.788;2023-03-23T00:38:30;4.13;;;1.83;;
9214;SDS011;4642;51.364;6.788;2023-03-23T00:40:56;4.13;;;1.83;;
9214;SDS011;4642;51.364;6.788;2023-03-23T00:43:22;3.83;;;1.90;;
9214;SDS011;4642;51.364;6.788;2023-03-23T00:45:49;2.80;;;1.70;;
9214;SDS011;4642;51.364;6.788;2023-03-23T00:48:17;3.13;;;1.80;;
9214;SDS011;4642;51.364;6.788;2023-03-23T00:50:46;6.90;;;2.27;;
9214;SDS011;4642;51.364;6.788;2023-03-23T00:53:12;3.80;;;2.00;;
9214;SDS011;4642;51.364;6.788;2023-03-23T00:55:40;2.57;;;1.90;;
9214;SDS011;4642;51.364;6.788;2023-03-23T00:58:07;4.13;;;2.13;;
9214;SDS011;4642;51.364;6.788;2023-03-23T01:00:33;2.50;;;1.90;;
9214;SDS011;4642;51.364;6.788;2023-03-23T01:02:58;3.87;;;1.80;;
9214;SDS011;4642;51.364;6.788;2023-03-23T01:05:24;2.43;;;1.87;;
9214;SDS011;4642;51.364;6.788;2023-03-23T01:07:57;2.53;;;1.87;;
9214;SDS011;4642;51.364;6.788;2023-03-23T01:10:23;2.70;;;1.77;;
9214;SDS011;4642;51.364;6.788;2023-03-23T01:12:51;2.23;;;1.80;;
9214;SDS011;4642;51.364;6.788;2023-03-23T01:15:17;5.73;;;2.20;;
9214;SDS011;4642;51.364;6.788;2023-03-23T01:17:44;5.27;;;1.97;;
9214;SDS011;4642;51.364;6.788;2023-03-23T01:20:11;4.77;;;2.20;;
9214;SDS011;4642;51.364;6.788;2023-03-23T01:22:38;3.03;;;1.90;;
9214;SDS011;4642;51.364;6.788;2023-03-23T01:25:05;5.00;;;1.77;;
9214;SDS011;4642;51.364;6.788;2023-03-23T01:27:31;5.83;;;2.00;;
9214;SDS011;4642;51.364;6.788;2023-03-23T01:29:57;2.40;;;1.83;;
9214;SDS011;4642;51.364;6.788;2023-03-23T01:32:23;3.33;;;1.90;;
9214;SDS011;4642;51.364;6.788;2023-03-23T01:34:48;4.70;;;1.93;;
9214;SDS011;4642;51.364;6.788;2023-03-23T01:37:14;2.20;;;1.50;;
9214;SDS011;4642;51.364;6.788;2023-03-23T01:39:40;2.67;;;1.83;;
9214;SDS011;4642;51.364;6.788;2023-03-23T01:42:07;1.60;;;1.30;;
9214;SDS011;4642;51.364;6.788;2023-03-23T01:46:59;4.87;;;1.80;;
9214;SDS011;4642;51.364;6.788;2023-03-23T01:49:26;2.27;;;1.53;;
9214;SDS011;4642;51.364;6.788;2023-03-23T01:51:57;2.07;;;1.83;;
9214;SDS011;4642;51.364;6.788;2023-03-23T01:54:25;2.10;;;1.53;;
9214;SDS011;4642;51.364;6.788;2023-03-23T01:56:53;4.70;;;1.80;;
9214;SDS011;4642;51.364;6.788;2023-03-23T01:59:21;4.10;;;1.47;;
9214;SDS011;4642;51.364;6.788;2023-03-23T02:01:49;3.70;;;1.60;;
9214;SDS011;4642;51.364;6.788;2023-03-23T02:04:17;2.53;;;1.57;;
9214;SDS011;4642;51.364;6.788;2023-03-23T02:06:43;3.10;;;1.73;;
9214;SDS011;4642;51.364;6.788;2023-03-23T02:09:09;4.03;;;1.73;;
9214;SDS011;4642;51.364;6.788;2023-03-23T02:11:36;2.40;;;1.77;;
9214;SDS011;4642;51.364;6.788;2023-03-23T02:14:02;4.67;;;1.80;;
9214;SDS011;4642;51.364;6.788;2023-03-23T02:16:41;2.37;;;1.93;;
9214;SDS011;4642;51.364;6.788;2023-03-23T02:35:31;2.17;;;1.80;;
9214;SDS011;4642;51.364;6.788;2023-03-23T02:38:06;2.30;;;1.63;;
9214;SDS011;4642;51.364;6.788;2023-03-23T02:40:43;2.53;;;1.80;;
9214;SDS011;4642;51.364;6.788;2023-03-23T02:43:13;2.70;;;2.00;;
9214;SDS011;4642;51.364;6.788;2023-03-23T02:45:42;2.80;;;1.60;;
9214;SDS011;4642;51.364;6.788;2023-03-23T02:48:09;2.50;;;1.80;;
9214;SDS011;4642;51.364;6.788;2023-03-23T02:50:38;2.03;;;1.83;;
9214;SDS011;4642;51.364;6.788;2023-03-23T02:53:07;3.67;;;1.90;;
9214;SDS011;4642;51.364;6.788;2023-03-23T02:55:36;3.27;;;1.93;;
9214;SDS011;4642;51.364;6.788;2023-03-23T02:58:06;2.40;;;1.60;;
9214;SDS011;4642;51.364;6.788;2023-03-23T03:00:33;2.00;;;1.60;;
9214;SDS011;4642;51.364;6.788;2023-03-23T03:02:58;2.10;;;1.60;;
9214;SDS011;4642;51.364;6.788;2023-03-23T03:06:26;3.07;;;1.80;;
9214;SDS011;4642;51.364;6.788;2023-03-23T03:08:50;2.90;;;1.50;;
9214;SDS011;4642;51.364;6.788;2023-03-23T03:11:26;2.33;;;1.30;;
9214;SDS011;4642;51.364;6.788;2023-03-23T03:18:57;2.17;;;1.40;;
9214;SDS011;4642;51.364;6.788;2023-03-23T03:21:25;2.67;;;1.50;;
9214;SDS011;4642;51.364;6.788;2023-03-23T03:23:55;2.67;;;1.60;;
9214;SDS011;4642;51.364;6.788;2023-03-23T03:26:24;2.47;;;1.30;;
9214;SDS011;4642;51.364;6.788;2023-03-23T03:28:51;1.97;;;1.50;;
9214;SDS011;4642;51.364;6.788;2023-03-23T03:31:18;2.30;;;1.30;;
9214;SDS011;4642;51.364;6.788;2023-03-23T03:33:48;1.97;;;1.30;;
9214;SDS011;4642;51.364;6.788;2023-03-23T03:36:16;2.60;;;1.17;;
9214;SDS011;4642;51.364;6.788;2023-03-23T03:38:46;4.13;;;1.73;;
9214;SDS011;4642;51.364;6.788;2023-03-23T03:41:14;3.77;;;1.30;;
9214;SDS011;4642;51.364;6.788;2023-03-23T03:43:40;1.60;;;1.10;;
9214;SDS011;4642;51.364;6.788;2023-03-23T03:46:05;3.00;;;1.37;;
9214;SDS011;4642;51.364;6.788;2023-03-23T03:48:31;1.50;;;1.20;;
9214;SDS011;4642;51.364;6.788;2023-03-23T03:50:57;1.60;;;1.33;;
9214;SDS011;4642;51.364;6.788;2023-03-23T03:53:25;1.77;;;1.50;;
9214;SDS011;4642;51.364;6.788;2023-03-23T03:55:51;2.30;;;1.40;;
9214;SDS011;4642;51.364;6.788;2023-03-23T03:58:20;6.07;;;1.30;;
9214;SDS011;4642;51.364;6.788;2023-03-23T04:00:47;3.43;;;1.33;;
9214;SDS011;4642;51.364;6.788;2023-03-23T04:03:13;1.87;;;1.20;;
9214;SDS011;4642;51.364;6.788;2023-03-23T04:05:40;2.77;;;1.30;;
9214;SDS011;4642;51.364;6.788;2023-03-23T04:08:06;2.00;;;1.30;;
9214;SDS011;4642;51.364;6.788;2023-03-23T04:10:32;3.57;;;1.27;;
9214;SDS011;4642;51.364;6.788;2023-03-23T04:12:58;2.27;;;1.30;;
9214;SDS011;4642;51.364;6.788;2023-03-23T04:15:24;3.50;;;1.20;;
9214;SDS011;4642;51.364;6.788;2023-03-23T04:17:51;2.60;;;1.70;;
9214;SDS011;4642;51.364;6.788;2023-03-23T04:20:16;3.70;;;1.40;;
9214;SDS011;4642;51.364;6.788;2023-03-23T04:22:46;3.67;;;1.50;;
9214;SDS011;4642;51.364;6.788;2023-03-23T04:25:14;4.70;;;1.10;;
9214;SDS011;4642;51.364;6.788;2023-03-23T04:27:42;2.20;;;1.10;;
9214;SDS011;4642;51.364;6.788;2023-03-23T04:30:08;1.53;;;1.30;;
9214;SDS011;4642;51.364;6.788;2023-03-23T04:32:38;2.60;;;1.40;;
9214;SDS011;4642;51.364;6.788;2023-03-23T04:35:08;1.83;;;1.17;;
9214;SDS011;4642;51.364;6.788;2023-03-23T04:37:36;2.30;;;1.43;;
9214;SDS011;4642;51.364;6.788;2023-03-23T04:40:02;2.80;;;1.40;;
9214;SDS011;4642;51.364;6.788;2023-03-23T04:42:33;3.80;;;1.70;;
9214;SDS011;4642;51.364;6.788;2023-03-23T04:44:59;1.43;;;1.20;;
9214;SDS011;4642;51.364;6.788;2023-03-23T04:47:25;1.90;;;1.30;;
9214;SDS011;4642;51.364;6.788;2023-03-23T04:49:54;4.60;;;1.50;;
9214;SDS011;4642;51.364;6.788;2023-03-23T04:52:21;1.70;;;1.17;;
9214;SDS011;4642;51.364;6.788;2023-03-23T04:54:47;1.90;;;1.30;;
9214;SDS011;4642;51.364;6.788;2023-03-23T04:57:12;2.03;;;1.40;;
9214;SDS011;4642;51.364;6.788;2023-03-23T04:59:40;5.00;;;1.70;;
9214;SDS011;4642;51.364;6.788;2023-03-23T05:02:06;2.27;;;1.60;;
9214;SDS011;4642;51.364;6.788;2023-03-23T05:04:32;1.60;;;1.30;;
9214;SDS011;4642;51.364;6.788;2023-03-23T05:06:58;1.50;;;1.40;;
9214;SDS011;4642;51.364;6.788;2023-03-23T05:09:24;2.10;;;1.60;;
9214;SDS011;4642;51.364;6.788;2023-03-23T05:11:49;2.17;;;1.57;;
9214;SDS011;4642;51.364;6.788;2023-03-23T05:14:15;4.17;;;1.60;;
9214;SDS011;4642;51.364;6.788;2023-03-23T05:16:41;1.80;;;1.40;;
9214;SDS011;4642;51.364;6.788;2023-03-23T05:19:06;3.17;;;1.57;;
9214;SDS011;4642;51.364;6.788;2023-03-23T05:21:33;3.53;;;1.67;;
9214;SDS011;4642;51.364;6.788;2023-03-23T05:23:59;4.37;;;2.17;;
9214;SDS011;4642;51.364;6.788;2023-03-23T05:26:25;3.67;;;1.63;;
9214;SDS011;4642;51.364;6.788;2023-03-23T05:28:54;1.73;;;1.47;;
9214;SDS011;4642;51.364;6.788;2023-03-23T05:31:21;1.97;;;1.50;;
9214;SDS011;4642;51.364;6.788;2023-03-23T05:33:46;2.10;;;1.50;;
9214;SDS011;4642;51.364;6.788;2023-03-23T05:36:12;2.93;;;1.93;;
9214;SDS011;4642;51.364;6.788;2023-03-23T05:38:38;3.00;;;1.70;;
9214;SDS011;4642;51.364;6.788;2023-03-23T05:41:07;2.50;;;1.63;;
9214;SDS011;4642;51.364;6.788;2023-03-23T05:43:33;2.53;;;1.77;;
9214;SDS011;4642;51.364;6.788;2023-03-23T05:45:58;2.97;;;1.90;;
9214;SDS011;4642;51.364;6.788;2023-03-23T05:48:25;1.90;;;1.50;;
9214;SDS011;4642;51.364;6.788;2023-03-23T05:50:51;3.40;;;1.90;;
9214;SDS011;4642;51.364;6.788;2023-03-23T05:53:16;4.87;;;1.80;;
9214;SDS011;4642;51.364;6.788;2023-03-23T05:55:42;1.90;;;1.70;;
9214;SDS011;4642;51.364;6.788;2023-03-23T05:58:08;2.07;;;1.80;;
9214;SDS011;4642;51.364;6.788;2023-03-23T06:00:33;4.50;;;2.00;;
9214;SDS011;4642;51.364;6.788;2023-03-23T06:03:00;2.70;;;1.80;;
9214;SDS011;4642;51.364;6.788;2023-03-23T06:05:26;1.63;;;1.47;;
9214;SDS011;4642;51.364;6.788;2023-03-23T06:07:52;4.63;;;1.73;;
9214;SDS011;4642;51.364;6.788;2023-03-23T06:10:18;1.63;;;1.37;;
9214;SDS011;4642;51.364;6.788;2023-03-23T06:12:44;4.40;;;2.00;;
9214;SDS011;4642;51.364;6.788;2023-03-23T06:15:10;3.17;;;1.90;;
9214;SDS011;4642;51.364;6.788;2023-03-23T06:17:36;5.30;;;2.23;;
9214;SDS011;4642;51.364;6.788;2023-03-23T06:20:03;2.73;;;1.50;;
9214;SDS011;4642;51.364;6.788;2023-03-23T06:22:38;3.37;;;2.00;;
9214;SDS011;4642;51.364;6.788;2023-03-23T06:25:07;2.73;;;1.77;;
9214;SDS011;4642;51.364;6.788;2023-03-23T06:27:34;3.00;;;1.70;;
9214;SDS011;4642;51.364;6.788;2023-03-23T06:30:00;2.83;;;1.87;;
9214;SDS011;4642;51.364;6.788;2023-03-23T06:32:27;4.27;;;2.07;;
9214;SDS011;4642;51.364;6.788;2023-03-23T06:34:54;3.67;;;1.90;;
9214;SDS011;4642;51.364;6.788;2023-03-23T06:37:21;2.60;;;1.53;;
9214;SDS011;4642;51.364;6.788;2023-03-23T06:39:48;4.07;;;1.73;;
9214;SDS011;4642;51.364;6.788;2023-03-23T06:42:14;4.53;;;1.50;;
9214;SDS011;4642;51.364;6.788;2023-03-23T06:44:39;3.80;;;1.60;;
9214;SDS011;4642;51.364;6.788;2023-03-23T06:47:05;5.13;;;1.93;;
9214;SDS011;4642;51.364;6.788;2023-03-23T06:49:30;3.50;;;1.80;;
9214;SDS011;4642;51.364;6.788;2023-03-23T06:51:56;2.53;;;1.43;;
9214;SDS011;4642;51.364;6.788;2023-03-23T06:54:22;4.87;;;1.90;;
9214;SDS011;4642;51.364;6.788;2023-03-23T06:56:48;5.23;;;1.93;;
9214;SDS011;4642;51.364;6.788;2023-03-23T06:59:13;4.53;;;1.93;;
9214;SDS011;4642;51.364;6.788;2023-03-23T07:01:39;3.37;;;2.13;;
9214;SDS011;4642;51.364;6.788;2023-03-23T07:04:05;4.53;;;1.83;;
9214;SDS011;4642;51.364;6.788;2023-03-23T07:06:31;5.47;;;1.87;;
9214;SDS011;4642;51.364;6.788;2023-03-23T07:08:57;6.77;;;1.70;;
9214;SDS011;4642;51.364;6.788;2023-03-23T07:11:22;3.70;;;1.77;;
9214;SDS011;4642;51.364;6.788;2023-03-23T07:13:49;3.83;;;1.70;;
9214;SDS011;4642;51.364;6.788;2023-03-23T07:16:14;3.37;;;1.77;;
9214;SDS011;4642;51.364;6.788;2023-03-23T07:18:41;1.93;;;1.43;;
9214;SDS011;4642;51.364;6.788;2023-03-23T07:21:07;3.63;;;1.37;;
9214;SDS011;4642;51.364;6.788;2023-03-23T07:23:33;3.37;;;1.70;;
9214;SDS011;4642;51.364;6.788;2023-03-23T07:25:59;3.20;;;1.60;;
9214;SDS011;4642;51.364;6.788;2023-03-23T07:28:25;4.63;;;1.30;;
9214;SDS011;4642;51.364;6.788;2023-03-23T07:30:51;2.50;;;1.50;;
9214;SDS011;4642;51.364;6.788;2023-03-23T07:33:16;3.77;;;1.40;;
9214;SDS011;4642;51.364;6.788;2023-03-23T07:35:43;2.83;;;1.30;;
9214;SDS011;4642;51.364;6.788;2023-03-23T07:38:08;4.33;;;1.90;;
9214;SDS011;4642;51.364;6.788;2023-03-23T07:40:34;2.53;;;1.40;;
9214;SDS011;4642;51.364;6.788;2023-03-23T07:43:01;5.73;;;1.53;;
9214;SDS011;4642;51.364;6.788;2023-03-23T07:45:28;3.73;;;1.37;;
9214;SDS011;4642;51.364;6.788;2023-03-23T07:47:54;2.67;;;1.40;;
9214;SDS011;4642;51.364;6.788;2023-03-23T07:50:20;2.90;;;1.30;;
9214;SDS011;4642;51.364;6.788;2023-03-23T07:52:49;4.77;;;1.60;;
9214;SDS011;4642;51.364;6.788;2023-03-23T07:55:16;4.87;;;1.47;;
9214;SDS011;4642;51.364;6.788;2023-03-23T07:57:45;1.87;;;1.20;;
9214;SDS011;4642;51.364;6.788;2023-03-23T08:00:13;1.93;;;1.30;;
9214;SDS011;4642;51.364;6.788;2023-03-23T08:02:46;6.07;;;1.90;;
9214;SDS011;4642;51.364;6.788;2023-03-23T08:05:13;3.43;;;1.30;;
9214;SDS011;4642;51.364;6.788;2023-03-23T08:07:40;3.87;;;1.47;;
9214;SDS011;4642;51.364;6.788;2023-03-23T08:10:07;5.40;;;1.43;;
9214;SDS011;4642;51.364;6.788;2023-03-23T08:12:38;7.30;;;1.57;;
9214;SDS011;4642;51.364;6.788;2023-03-23T08:15:05;3.97;;;1.30;;
9214;SDS011;4642;51.364;6.788;2023-03-23T08:17:32;3.20;;;1.20;;
9214;SDS011;4642;51.364;6.788;2023-03-23T08:19:59;4.00;;;1.30;;
9214;SDS011;4642;51.364;6.788;2023-03-23T08:22:25;5.17;;;1.63;;
9214;SDS011;4642;51.364;6.788;2023-03-23T08:24:51;4.97;;;2.07;;
9214;SDS011;4642;51.364;6.788;2023-03-23T08:27:17;4.30;;;1.70;;
9214;SDS011;4642;51.364;6.788;2023-03-23T08:29:46;6.77;;;1.47;;
9214;SDS011;4642;51.364;6.788;2023-03-23T08:32:13;4.67;;;1.27;;
9214;SDS011;4642;51.364;6.788;2023-03-23T08:34:39;3.43;;;1.53;;
9214;SDS011;4642;51.364;6.788;2023-03-23T08:37:08;4.70;;;1.47;;
9214;SDS011;4642;51.364;6.788;2023-03-23T08:39:34;4.87;;;2.17;;
9214;SDS011;4642;51.364;6.788;2023-03-23T08:41:59;3.43;;;1.30;;
9214;SDS011;4642;51.364;6.788;2023-03-23T08:44:25;2.97;;;1.27;;
9214;SDS011;4642;51.364;6.788;2023-03-23T08:46:50;6.73;;;1.47;;
9214;SDS011;4642;51.364;6.788;2023-03-23T08:49:21;4.43;;;1.57;;
9214;SDS011;4642;51.364;6.788;2023-03-23T08:51:50;5.93;;;1.40;;
9214;SDS011;4642;51.364;6.788;2023-03-23T08:54:16;3.10;;;1.20;;
9214;SDS011;4642;51.364;6.788;2023-03-23T08:56:42;5.20;;;1.40;;
9214;SDS011;4642;51.364;6.788;2023-03-23T08:59:08;3.07;;;1.20;;
9214;SDS011;4642;51.364;6.788;2023-03-23T09:01:34;6.23;;;1.60;;
9214;SDS011;4642;51.364;6.788;2023-03-23T09:03:59;4.63;;;1.23;;
9214;SDS011;4642;51.364;6.788;2023-03-23T09:06:25;3.33;;;1.20;;
9214;SDS011;4642;51.364;6.788;2023-03-23T09:08:51;4.40;;;1.50;;
9214;SDS011;4642;51.364;6.788;2023-03-23T09:11:17;3.63;;;1.50;;
9214;SDS011;4642;51.364;6.788;2023-03-23T09:13:42;7.30;;;1.50;;
9214;SDS011;4642;51.364;6.788;2023-03-23T09:16:08;3.17;;;1.43;;
9214;SDS011;4642;51.364;6.788;2023-03-23T09:18:34;5.63;;;1.13;;
9214;SDS011;4642;51.364;6.788;2023-03-23T09:21:01;5.13;;;1.57;;
9214;SDS011;4642;51.364;6.788;2023-03-23T09:23:28;3.37;;;1.20;;
9214;SDS011;4642;51.364;6.788;2023-03-23T09:25:54;2.40;;;1.20;;
9214;SDS011;4642;51.364;6.788;2023-03-23T09:28:19;4.43;;;1.20;;
9214;SDS011;4642;51.364;6.788;2023-03-23T09:30:45;5.90;;;1.60;;
9214;SDS011;4642;51.364;6.788;2023-03-23T09:33:12;4.47;;;1.10;;
9214;SDS011;4642;51.364;6.788;2023-03-23T09:35:38;4.23;;;1.03;;
9214;SDS011;4642;51.364;6.788;2023-03-23T09:38:06;2.87;;;1.20;;
9214;SDS011;4642;51.364;6.788;2023-03-23T09:43:36;3.90;;;1.10;;
9214;SDS011;4642;51.364;6.788;2023-03-23T09:53:48;4.40;;;1.17;;
9214;SDS011;4642;51.364;6.788;2023-03-23T09:56:18;2.60;;;0.90;;
9214;SDS011;4642;51.364;6.788;2023-03-23T10:01:25;1.40;;;0.83;;
9214;SDS011;4642;51.364;6.788;2023-03-23T10:03:59;6.00;;;1.30;;
9214;SDS011;4642;51.364;6.788;2023-03-23T10:06:46;1.93;;;0.83;;
9214;SDS011;4642;51.364;6.788;2023-03-23T10:09:14;1.43;;;0.90;;
9214;SDS011;4642;51.364;6.788;2023-03-23T10:11:57;1.53;;;0.83;;
9214;SDS011;4642;51.364;6.788;2023-03-23T10:22:25;5.53;;;0.90;;
9214;SDS011;4642;51.364;6.788;2023-03-23T10:27:57;5.93;;;1.20;;
9214;SDS011;4642;51.364;6.788;2023-03-23T10:30:55;3.27;;;1.10;;
9214;SDS011;4642;51.364;6.788;2023-03-23T10:33:43;3.27;;;1.00;;
9214;SDS011;4642;51.364;6.788;2023-03-23T10:36:18;3.07;;;0.93;;
9214;SDS011;4642;51.364;6.788;2023-03-23T10:38:53;3.13;;;1.10;;
9214;SDS011;4642;51.364;6.788;2023-03-23T10:41:28;3.40;;;0.97;;
9214;SDS011;4642;51.364;6.788;2023-03-23T10:43:55;2.13;;;1.03;;
9214;SDS011;4642;51.364;6.788;2023-03-23T10:49:19;1.47;;;0.93;;
9214;SDS011;4642;51.364;6.788;2023-03-23T10:54:38;3.40;;;1.10;;
9214;SDS011;4642;51.364;6.788;2023-03-23T10:57:21;3.13;;;1.17;;
9214;SDS011;4642;51.364;6.788;2023-03-23T10:59:49;2.97;;;1.20;;
9214;SDS011;4642;51.364;6.788;2023-03-23T11:02:18;2.70;;;1.00;;
9214;SDS011;4642;51.364;6.788;2023-03-23T11:05:01;5.77;;;1.90;;
9214;SDS011;4642;51.364;6.788;2023-03-23T11:07:32;2.40;;;1.63;;
9214;SDS011;4642;51.364;6.788;2023-03-23T11:10:11;3.37;;;1.23;;
9214;SDS011;4642;51.364;6.788;2023-03-23T11:12:51;3.90;;;1.13;;
9214;SDS011;4642;51.364;6.788;2023-03-23T11:15:24;2.80;;;0.97;;
9214;SDS011;4642;51.364;6.788;2023-03-23T11:17:56;4.93;;;1.33;;
9214;SDS011;4642;51.364;6.788;2023-03-23T11:20:24;2.90;;;1.20;;
9214;SDS011;4642;51.364;6.788;2023-03-23T11:22:51;2.77;;;1.17;;
9214;SDS011;4642;51.364;6.788;2023-03-23T11:25:17;2.63;;;0.83;;
9214;SDS011;4642;51.364;6.788;2023-03-23T11:27:43;2.83;;;0.97;;
9214;SDS011;4642;51.364;6.788;2023-03-23T11:30:20;3.43;;;0.90;;
9214;SDS011;4642;51.364;6.788;2023-03-23T11:32:58;2.53;;;0.70;;
9214;SDS011;4642;51.364;6.788;2023-03-23T11:35:27;4.13;;;0.83;;
9214;SDS011;4642;51.364;6.788;2023-03-23T11:37:54;2.13;;;0.70;;
9214;SDS011;4642;51.364;6.788;2023-03-23T11:40:26;2.63;;;0.90;;
9214;SDS011;4642;51.364;6.788;2023-03-23T11:43:07;1.70;;;0.87;;
9214;SDS011;4642;51.364;6.788;2023-03-23T11:46:18;2.67;;;1.10;;
9214;SDS011;4642;51.364;6.788;2023-03-23T11:48:43;1.17;;;0.70;;
9214;SDS011;4642;51.364;6.788;2023-03-23T11:54:11;2.23;;;1.10;;
9214;SDS011;4642;51.364;6.788;2023-03-23T11:56:46;0.80;;;0.63;;
9214;SDS011;4642;51.364;6.788;2023-03-23T11:59:16;3.80;;;1.00;;
9214;SDS011;4642;51.364;6.788;2023-03-23T12:04:45;3.50;;;0.97;;
9214;SDS011;4642;51.364;6.788;2023-03-23T12:10:24;2.37;;;0.90;;
9214;SDS011;4642;51.364;6.788;2023-03-23T12:13:05;2.50;;;0.93;;
9214;SDS011;4642;51.364;6.788;2023-03-23T12:16:00;2.27;;;1.07;;
9214;SDS011;4642;51.364;6.788;2023-03-23T12:18:33;1.53;;;1.10;;
9214;SDS011;4642;51.364;6.788;2023-03-23T12:21:21;2.47;;;1.10;;
9214;SDS011;4642;51.364;6.788;2023-03-23T12:24:18;1.70;;;1.03;;
9214;SDS011;4642;51.364;6.788;2023-03-23T12:27:04;4.33;;;1.20;;
9214;SDS011;4642;51.364;6.788;2023-03-23T12:33:01;4.70;;;1.60;;
9214;SDS011;4642;51.364;6.788;2023-03-23T12:35:45;3.13;;;1.40;;
9214;SDS011;4642;51.364;6.788;2023-03-23T12:38:38;3.70;;;1.40;;
9214;SDS011;4642;51.364;6.788;2023-03-23T12:44:03;1.97;;;1.60;;
9214;SDS011;4642;51.364;6.788;2023-03-23T12:49:20;3.40;;;1.90;;
9214;SDS011;4642;51.364;6.788;2023-03-23T12:51:59;2.83;;;1.93;;
9214;SDS011;4642;51.364;6.788;2023-03-23T12:54:45;2.20;;;1.63;;
9214;SDS011;4642;51.364;6.788;2023-03-23T12:57:32;3.17;;;1.93;;
9214;SDS011;4642;51.364;6.788;2023-03-23T13:00:13;2.20;;;1.53;;
9214;SDS011;4642;51.364;6.788;2023-03-23T13:02:52;3.30;;;1.47;;
9214;SDS011;4642;51.364;6.788;2023-03-23T13:05:42;5.70;;;1.50;;
9214;SDS011;4642;51.364;6.788;2023-03-23T13:08:15;3.67;;;1.17;;
9214;SDS011;4642;51.364;6.788;2023-03-23T13:10:47;1.80;;;1.20;;
9214;SDS011;4642;51.364;6.788;2023-03-23T13:13:23;4.70;;;1.77;;
9214;SDS011;4642;51.364;6.788;2023-03-23T13:16:16;2.97;;;1.23;;
9214;SDS011;4642;51.364;6.788;2023-03-23T13:19:00;4.50;;;1.30;;
9214;SDS011;4642;51.364;6.788;2023-03-23T13:21:41;5.10;;;1.40;;
9214;SDS011;4642;51.364;6.788;2023-03-23T13:24:15;4.87;;;1.40;;
9214;SDS011;4642;51.364;6.788;2023-03-23T13:26:45;3.40;;;1.50;;
9214;SDS011;4642;51.364;6.788;2023-03-23T13:29:20;5.13;;;1.47;;
9214;SDS011;4642;51.364;6.788;2023-03-23T13:31:49;3.80;;;1.40;;
9214;SDS011;4642;51.364;6.788;2023-03-23T13:34:23;5.77;;;1.70;;
9214;SDS011;4642;51.364;6.788;2023-03-23T13:36:58;5.23;;;1.77;;
9214;SDS011;4642;51.364;6.788;2023-03-23T13:39:35;3.50;;;1.50;;
9214;SDS011;4642;51.364;6.788;2023-03-23T13:50:42;6.27;;;2.07;;
9214;SDS011;4642;51.364;6.788;2023-03-23T13:58:26;3.33;;;2.00;;
9214;SDS011;4642;51.364;6.788;2023-03-23T14:02:59;4.27;;;2.07;;
9214;SDS011;4642;51.364;6.788;2023-03-23T14:05:31;2.57;;;1.67;;
9214;SDS011;4642;51.364;6.788;2023-03-23T14:10:34;4.33;;;2.00;;
9214;SDS011;4642;51.364;6.788;2023-03-23T14:13:10;3.40;;;2.30;;
9214;SDS011;4642;51.364;6.788;2023-03-23T14:15:53;2.57;;;2.17;;
9214;SDS011;4642;51.364;6.788;2023-03-23T14:18:21;3.87;;;2.47;;
9214;SDS011;4642;51.364;6.788;2023-03-23T14:20:50;4.23;;;2.20;;
9214;SDS011;4642;51.364;6.788;2023-03-23T14:23:16;4.40;;;2.60;;
9214;SDS011;4642;51.364;6.788;2023-03-23T14:25:43;3.97;;;2.67;;
9214;SDS011;4642;51.364;6.788;2023-03-23T14:28:19;4.87;;;2.57;;
9214;SDS011;4642;51.364;6.788;2023-03-23T14:30:47;4.10;;;2.53;;
9214;SDS011;4642;51.364;6.788;2023-03-23T14:33:17;5.40;;;2.40;;
9214;SDS011;4642;51.364;6.788;2023-03-23T14:35:44;3.83;;;2.30;;
9214;SDS011;4642;51.364;6.788;2023-03-23T14:38:17;4.13;;;2.00;;
9214;SDS011;4642;51.364;6.788;2023-03-23T14:40:46;2.63;;;1.90;;
9214;SDS011;4642;51.364;6.788;2023-03-23T14:43:14;3.30;;;2.10;;
9214;SDS011;4642;51.364;6.788;2023-03-23T14:45:45;6.97;;;2.00;;
9214;SDS011;4642;51.364;6.788;2023-03-23T14:48:15;4.23;;;2.17;;
9214;SDS011;4642;51.364;6.788;2023-03-23T14:51:01;4.67;;;2.03;;
9214;SDS011;4642;51.364;6.788;2023-03-23T14:53:31;6.37;;;2.17;;
9214;SDS011;4642;51.364;6.788;2023-03-23T14:56:02;3.30;;;1.60;;
9214;SDS011;4642;51.364;6.788;2023-03-23T14:58:34;2.60;;;1.60;;
9214;SDS011;4642;51.364;6.788;2023-03-23T15:01:08;2.97;;;1.63;;
9214;SDS011;4642;51.364;6.788;2023-03-23T15:03:43;3.60;;;1.20;;
9214;SDS011;4642;51.364;6.788;2023-03-23T15:06:16;3.60;;;1.77;;
9214;SDS011;4642;51.364;6.788;2023-03-23T15:08:45;3.27;;;1.40;;
9214;SDS011;4642;51.364;6.788;2023-03-23T15:13:45;4.47;;;1.30;;
9214;SDS011;4642;51.364;6.788;2023-03-23T15:16:17;4.30;;;1.20;;
9214;SDS011;4642;51.364;6.788;2023-03-23T15:18:50;5.77;;;1.67;;
9214;SDS011;4642;51.364;6.788;2023-03-23T15:21:32;3.53;;;1.30;;
9214;SDS011;4642;51.364;6.788;2023-03-23T15:24:00;7.23;;;1.60;;
9214;SDS011;4642;51.364;6.788;2023-03-23T15:26:34;4.30;;;1.40;;
9214;SDS011;4642;51.364;6.788;2023-03-23T15:31:34;3.77;;;1.20;;
9214;SDS011;4642;51.364;6.788;2023-03-23T15:34:04;3.33;;;1.47;;
9214;SDS011;4642;51.364;6.788;2023-03-23T15:36:33;4.53;;;1.43;;
9214;SDS011;4642;51.364;6.788;2023-03-23T15:39:00;3.83;;;1.97;;
9214;SDS011;4642;51.364;6.788;2023-03-23T15:41:27;3.70;;;1.23;;
9214;SDS011;4642;51.364;6.788;2023-03-23T15:43:55;5.07;;;1.40;;
9214;SDS011;4642;51.364;6.788;2023-03-23T15:46:23;6.70;;;1.43;;
9214;SDS011;4642;51.364;6.788;2023-03-23T15:51:19;4.27;;;1.30;;
9214;SDS011;4642;51.364;6.788;2023-03-23T15:53:46;7.87;;;1.70;;
9214;SDS011;4642;51.364;6.788;2023-03-23T15:56:14;4.97;;;1.47;;
9214;SDS011;4642;51.364;6.788;2023-03-23T15:58:40;5.23;;;1.50;;
9214;SDS011;4642;51.364;6.788;2023-03-23T16:01:09;3.67;;;1.50;;
9214;SDS011;4642;51.364;6.788;2023-03-23T16:06:08;2.20;;;1.33;;
9214;SDS011;4642;51.364;6.788;2023-03-23T16:08:35;3.60;;;1.60;;
9214;SDS011;4642;51.364;6.788;2023-03-23T16:11:04;8.13;;;1.40;;
9214;SDS011;4642;51.364;6.788;2023-03-23T16:13:35;3.40;;;1.37;;
9214;SDS011;4642;51.364;6.788;2023-03-23T16:16:00;4.70;;;1.67;;
9214;SDS011;4642;51.364;6.788;2023-03-23T16:18:27;6.07;;;1.53;;
9214;SDS011;4642;51.364;6.788;2023-03-23T16:20:52;5.87;;;1.60;;
9214;SDS011;4642;51.364;6.788;2023-03-23T16:23:18;4.93;;;1.47;;
9214;SDS011;4642;51.364;6.788;2023-03-23T16:25:43;2.37;;;1.30;;
9214;SDS011;4642;51.364;6.788;2023-03-23T16:28:12;3.20;;;1.33;;
9214;SDS011;4642;51.364;6.788;2023-03-23T16:30:39;6.30;;;1.47;;
9214;SDS011;4642;51.364;6.788;2023-03-23T16:33:05;6.63;;;1.87;;
9214;SDS011;4642;51.364;6.788;2023-03-23T16:35:31;3.87;;;1.70;;
9214;SDS011;4642;51.364;6.788;2023-03-23T16:37:57;3.40;;;1.53;;
9214;SDS011;4642;51.364;6.788;2023-03-23T16:40:22;3.33;;;1.77;;
9214;SDS011;4642;51.364;6.788;2023-03-23T16:42:49;5.07;;;2.17;;
9214;SDS011;4642;51.364;6.788;2023-03-23T16:45:15;4.67;;;1.50;;
9214;SDS011;4642;51.364;6.788;2023-03-23T16:47:42;4.80;;;1.77;;
9214;SDS011;4642;51.364;6.788;2023-03-23T16:50:09;3.80;;;2.00;;
9214;SDS011;4642;51.364;6.788;2023-03-23T16:52:37;5.20;;;1.80;;
9214;SDS011;4642;51.364;6.788;2023-03-23T16:55:04;6.33;;;1.57;;
9214;SDS011;4642;51.364;6.788;2023-03-23T16:57:31;3.27;;;1.53;;
9214;SDS011;4642;51.364;6.788;2023-03-23T16:59:58;3.93;;;1.60;;
9214;SDS011;4642;51.364;6.788;2023-03-23T17:02:24;5.20;;;1.80;;
9214;SDS011;4642;51.364;6.788;2023-03-23T17:04:50;5.07;;;1.70;;
9214;SDS011;4642;51.364;6.788;2023-03-23T17:07:16;4.30;;;2.03;;
9214;SDS011;4642;51.364;6.788;2023-03-23T17:09:42;3.90;;;1.97;;